Time;durP1;ratioP1;P1;durP2;ratioP2;P2;SDS_P1;SDS_P2;PMS_P1;PMS_P2;Temp;Humidity;BMP_temperature;BMP_pressure;BME280_temperature;BME280_humidity;BME280_pressure;Samples;Min_cycle;Max_cycle;Signal;HPM_P1;HPM_P2
2023/09/14 00:00:51;;;;;;;9.88;0.80;;;;;;;18.74;81.95;101796.41;7356290;19;20034;-62
2023/09/14 00:03:19;;;;;;;5.93;0.77;;;;;;;18.73;81.61;101797.41;7350703;19;20477;-63
2023/09/14 00:05:49;;;;;;;4.28;1.08;;;;;;;18.71;82.13;101797.59;7355138;19;20487;-62
2023/09/14 00:08:17;;;;;;;7.68;1.00;;;;;;;18.72;82.08;101787.75;7351275;19;20035;-62
2023/09/14 00:10:44;;;;;;;5.32;0.60;;;;;;;18.70;82.42;101787.09;7355076;19;20676;-65
2023/09/14 00:13:11;;;;;;;5.15;1.50;;;;;;;18.71;82.69;101783.44;7356303;19;20022;-61
2023/09/14 00:15:39;;;;;;;8.45;0.80;;;;;;;18.70;82.43;101784.44;7353861;19;20014;-64
2023/09/14 00:18:06;;;;;;;7.95;1.40;;;;;;;18.70;82.88;101787.09;7353575;19;20613;-63
2023/09/14 00:20:34;;;;;;;5.95;0.88;;;;;;;18.71;82.77;101780.75;7355143;19;20011;-61
2023/09/14 00:23:03;;;;;;;7.45;0.90;;;;;;;18.72;82.99;101780.59;7352693;19;20044;-61
2023/09/14 00:25:30;;;;;;;5.70;0.88;;;;;;;18.69;83.23;101778.28;7358032;19;20134;-63
2023/09/14 00:27:58;;;;;;;3.72;0.80;;;;;;;18.64;83.34;101769.19;7354656;19;20010;-63
2023/09/14 00:30:25;;;;;;;6.82;0.70;;;;;;;18.61;82.87;101773.03;7354080;19;20213;-62
2023/09/14 00:32:52;;;;;;;7.60;1.10;;;;;;;18.55;83.38;101771.09;7356418;19;20037;-63
2023/09/14 00:35:20;;;;;;;9.68;0.90;;;;;;;18.49;83.54;101768.31;7356103;19;20521;-62
2023/09/14 00:37:48;;;;;;;4.40;0.88;;;;;;;18.47;84.08;101771.16;7355246;19;20022;-62
2023/09/14 00:40:17;;;;;;;4.32;0.85;;;;;;;18.47;83.83;101773.81;7362779;19;20014;-63
2023/09/14 00:42:47;;;;;;;6.22;0.80;;;;;;;18.44;84.36;101760.81;7360588;19;20007;-63
2023/09/14 00:45:17;;;;;;;5.70;0.98;;;;;;;18.44;84.31;101765.34;7363799;19;20037;-63
2023/09/14 00:47:46;;;;;;;4.97;0.90;;;;;;;18.42;84.33;101770.88;7358430;19;20534;-63
2023/09/14 00:50:16;;;;;;;6.28;0.70;;;;;;;18.38;84.46;101765.06;7362681;19;20573;-63
2023/09/14 00:52:46;;;;;;;7.15;0.85;;;;;;;18.34;84.29;101760.25;7362116;19;20018;-64
2023/09/14 00:55:17;;;;;;;5.05;0.70;;;;;;;18.32;86.23;101759.63;7358330;19;20286;-63
2023/09/14 00:57:48;;;;;;;4.25;0.65;;;;;;;18.26;85.35;101769.16;7360526;19;20542;-62
2023/09/14 01:00:16;;;;;;;8.23;0.90;;;;;;;18.22;85.28;101764.38;7365086;19;20503;-62
2023/09/14 01:02:44;;;;;;;5.88;1.00;;;;;;;18.20;85.17;101761.06;7361759;19;20014;-62
2023/09/14 01:05:14;;;;;;;5.35;0.70;;;;;;;18.18;85.39;101761.25;7363253;19;20049;-62
2023/09/14 01:07:41;;;;;;;5.85;1.15;;;;;;;18.14;85.24;101759.09;7358361;19;20743;-63
2023/09/14 01:10:10;;;;;;;6.05;0.70;;;;;;;18.12;85.85;101764.63;7359030;19;20023;-63
2023/09/14 01:12:39;;;;;;;6.03;0.60;;;;;;;18.13;85.51;101768.13;7360557;19;20014;-63
2023/09/14 01:15:16;;;;;;;2.75;0.90;;;;;;;18.09;85.58;101764.13;7362059;19;20658;-62
2023/09/14 01:17:54;;;;;;;4.93;0.80;;;;;;;18.03;85.96;101762.22;7360909;19;20010;-63
2023/09/14 01:20:32;;;;;;;4.53;0.60;;;;;;;17.98;86.03;101754.72;7357121;19;20010;-61
2023/09/14 01:23:19;;;;;;;6.80;0.80;;;;;;;17.96;86.38;101762.09;7358754;19;20456;-62
2023/09/14 01:25:48;;;;;;;5.97;1.00;;;;;;;17.97;87.75;101761.09;7359299;19;20010;-61
2023/09/14 01:28:15;;;;;;;7.72;1.10;;;;;;;17.97;87.24;101753.09;7363252;19;20011;-61
2023/09/14 01:30:42;;;;;;;4.72;0.75;;;;;;;17.94;87.18;101748.94;7362616;19;20006;-61
2023/09/14 01:33:15;;;;;;;5.85;0.93;;;;;;;17.91;87.10;101745.81;7361328;19;20018;-62
2023/09/14 01:35:56;;;;;;;3.40;0.95;;;;;;;17.86;87.24;101741.03;7362236;19;20570;-63
2023/09/14 01:38:25;;;;;;;7.40;0.80;;;;;;;17.89;87.27;101740.66;7359628;19;20022;-63
2023/09/14 01:40:54;;;;;;;8.27;1.00;;;;;;;17.88;87.93;101748.81;7359510;19;20341;-61
2023/09/14 01:43:21;;;;;;;4.78;0.80;;;;;;;17.89;87.95;101739.81;7360753;19;20021;-63
2023/09/14 01:45:49;;;;;;;8.75;0.90;;;;;;;17.91;88.02;101749.31;7357266;19;20421;-61
2023/09/14 01:48:18;;;;;;;5.18;0.70;;;;;;;17.92;88.00;101744.81;7356483;19;20018;-61
2023/09/14 01:50:46;;;;;;;7.22;1.08;;;;;;;17.92;87.97;101744.81;7356941;19;20081;-62
2023/09/14 01:53:13;;;;;;;10.20;1.70;;;;;;;17.92;87.94;101740.31;7360270;19;20431;-62
2023/09/14 01:55:40;;;;;;;5.93;0.60;;;;;;;17.92;87.84;101742.16;7360094;19;20046;-62
2023/09/14 01:58:09;;;;;;;6.55;0.80;;;;;;;17.92;88.04;101740.31;7357399;19;20022;-62
2023/09/14 02:00:36;;;;;;;5.65;1.00;;;;;;;17.97;88.30;101741.59;7362147;19;20916;-62
2023/09/14 02:03:04;;;;;;;4.18;1.00;;;;;;;17.95;87.83;101742.59;7359154;19;21876;-62
2023/09/14 02:05:31;;;;;;;3.60;0.73;;;;;;;17.96;87.72;101727.47;7358691;19;21351;-63
2023/09/14 02:07:58;;;;;;;4.65;0.70;;;;;;;17.98;87.20;101740.59;7357864;19;20037;-62
2023/09/14 02:10:26;;;;;;;6.13;0.73;;;;;;;17.94;87.45;101738.28;7361798;19;20019;-62
2023/09/14 02:12:53;;;;;;;4.85;0.88;;;;;;;17.90;87.72;101736.16;7355202;19;20015;-62
2023/09/14 02:15:21;;;;;;;5.05;1.10;;;;;;;17.89;88.58;101737.16;7361190;19;20106;-63
2023/09/14 02:17:48;;;;;;;6.60;0.90;;;;;;;17.89;88.02;101730.00;7353689;19;20056;-63
2023/09/14 02:20:16;;;;;;;5.30;1.10;;;;;;;17.87;88.20;101725.88;7359146;19;20020;-61
2023/09/14 02:22:43;;;;;;;8.77;0.98;;;;;;;17.88;88.76;101731.00;7357123;19;20036;-62
2023/09/14 02:25:10;;;;;;;5.32;0.73;;;;;;;17.88;88.63;101733.66;7356455;19;20021;-62
2023/09/14 02:27:38;;;;;;;5.53;0.98;;;;;;;17.87;88.72;101728.53;7358900;19;20011;-61
2023/09/14 02:30:06;;;;;;;8.73;1.00;;;;;;;17.87;88.61;101728.53;7360858;19;20062;-62
2023/09/14 02:32:34;;;;;;;4.07;0.90;;;;;;;17.93;88.77;101730.47;7356910;19;20025;-61
2023/09/14 02:35:01;;;;;;;5.30;0.68;;;;;;;17.93;88.86;101730.47;7360016;19;20827;-63
2023/09/14 02:37:28;;;;;;;7.57;0.90;;;;;;;17.93;88.57;101727.81;7349221;19;20490;-61
2023/09/14 02:39:55;;;;;;;7.90;1.08;;;;;;;17.94;88.82;101737.44;7360383;19;20022;-61
2023/09/14 02:42:23;;;;;;;5.53;1.10;;;;;;;17.94;88.66;101738.28;7355018;19;20094;-62
2023/09/14 02:44:50;;;;;;;5.75;0.70;;;;;;;17.94;88.97;101734.78;7358811;19;20761;-62
2023/09/14 02:47:17;;;;;;;4.88;0.90;;;;;;;17.94;88.90;101732.13;7358697;19;20022;-63
2023/09/14 02:49:45;;;;;;;6.45;1.40;;;;;;;17.97;90.23;101731.78;7353143;19;20471;-62
2023/09/14 02:52:12;;;;;;;9.00;1.25;;;;;;;17.97;90.17;101733.63;7357662;19;20234;-62
2023/09/14 02:54:39;;;;;;;7.13;0.90;;;;;;;17.93;89.26;101730.47;7360541;19;20020;-63
2023/09/14 02:57:06;;;;;;;3.53;1.10;;;;;;;17.89;89.00;101731.84;7357046;19;20026;-62
2023/09/14 02:59:33;;;;;;;4.95;0.90;;;;;;;17.89;89.38;101737.16;7359492;19;20014;-62
2023/09/14 03:02:01;;;;;;;6.00;1.63;;;;;;;17.88;89.65;101732.84;7358106;19;20054;-61
2023/09/14 03:04:28;;;;;;;7.22;1.50;;;;;;;17.87;89.50;101721.38;7353427;19;20036;-63
2023/09/14 03:06:56;;;;;;;8.30;0.90;;;;;;;17.87;89.73;101732.03;7355252;19;20010;-63
2023/09/14 03:09:24;;;;;;;6.70;0.90;;;;;;;17.88;89.93;101731.00;7360329;19;20356;-66
2023/09/14 03:11:51;;;;;;;6.20;1.27;;;;;;;17.92;89.83;101726.16;7356929;19;21732;-62
2023/09/14 03:14:18;;;;;;;7.57;0.93;;;;;;;17.90;89.62;101728.16;7360214;19;20033;-61
2023/09/14 03:16:45;;;;;;;9.18;1.35;;;;;;;17.89;89.54;101730.00;7357075;19;20545;-63
2023/09/14 03:19:12;;;;;;;4.63;0.90;;;;;;;17.90;89.60;101715.69;7355360;19;20010;-63
2023/09/14 03:21:40;;;;;;;4.63;1.00;;;;;;;17.91;89.23;101730.66;7355874;19;20006;-63
2023/09/14 03:24:07;;;;;;;4.07;0.80;;;;;;;17.90;90.28;101722.84;7354787;19;20708;-62
2023/09/14 03:26:34;;;;;;;5.25;1.00;;;;;;;17.93;90.28;101719.81;7354086;19;20010;-63
2023/09/14 03:29:02;;;;;;;5.43;1.63;;;;;;;17.90;89.67;101721.00;7353967;19;20018;-62
2023/09/14 03:31:29;;;;;;;5.13;1.10;;;;;;;17.90;89.62;101717.53;7357972;19;20446;-63
2023/09/14 03:33:56;;;;;;;4.75;0.98;;;;;;;17.88;89.52;101725.69;7359738;19;20007;-62
2023/09/14 03:36:24;;;;;;;8.70;1.40;;;;;;;17.87;89.54;101729.38;7352372;19;21230;-62
2023/09/14 03:38:51;;;;;;;6.63;0.90;;;;;;;17.84;89.50;101727.03;7356417;19;20241;-62
2023/09/14 03:41:19;;;;;;;6.63;1.00;;;;;;;17.82;89.82;101730.91;7357486;19;21861;-62
2023/09/14 03:43:47;;;;;;;4.32;1.00;;;;;;;17.80;90.18;101728.41;7356200;19;20007;-63
2023/09/14 03:46:18;;;;;;;8.00;1.33;;;;;;;17.81;90.17;101723.91;7358118;19;20010;-63
2023/09/14 03:48:45;;;;;;;6.72;1.20;;;;;;;17.76;89.99;101726.28;7356867;19;20534;-63
2023/09/14 03:51:13;;;;;;;4.57;1.00;;;;;;;17.72;89.57;101730.31;7349964;19;20014;-63
2023/09/14 03:53:41;;;;;;;5.93;1.38;;;;;;;17.68;89.85;101724.50;7358104;19;20305;-62
2023/09/14 03:56:08;;;;;;;5.55;0.98;;;;;;;17.64;90.06;101725.03;7351700;19;20029;-63
2023/09/14 03:58:36;;;;;;;4.72;0.80;;;;;;;17.65;90.49;101729.34;7358040;19;20050;-62
2023/09/14 04:01:03;;;;;;;5.90;1.40;;;;;;;17.63;90.72;101726.03;7356085;19;20019;-62
2023/09/14 04:03:34;;;;;;;8.90;1.30;;;;;;;17.63;90.75;101723.38;7355050;19;20807;-61
2023/09/14 04:06:02;;;;;;;8.07;1.25;;;;;;;17.61;90.60;101717.41;7357673;19;20321;-61
2023/09/14 04:08:30;;;;;;;7.32;1.08;;;;;;;17.61;90.57;101720.91;7356906;19;20010;-62
2023/09/14 04:11:00;;;;;;;7.28;1.15;;;;;;;17.61;90.63;101712.91;7356451;19;20022;-62
2023/09/14 04:13:32;;;;;;;9.05;1.30;;;;;;;17.59;90.56;101708.72;7356038;19;20025;-62
2023/09/14 04:16:01;;;;;;;4.40;1.10;;;;;;;17.60;91.19;101708.59;7353446;19;21114;-62
2023/09/14 04:18:34;;;;;;;5.00;1.38;;;;;;;17.59;91.03;101698.94;7355071;19;20094;-62
2023/09/14 04:21:05;;;;;;;5.03;1.25;;;;;;;17.60;90.96;101699.78;7347800;19;20042;-62
2023/09/14 04:23:32;;;;;;;6.43;1.33;;;;;;;17.57;90.86;101694.78;7358357;19;20106;-62
2023/09/14 04:26:01;;;;;;;9.88;1.45;;;;;;;17.52;90.92;101701.44;7352732;19;20014;-63
2023/09/14 04:28:28;;;;;;;6.85;1.35;;;;;;;17.49;90.95;101696.47;7354101;19;20505;-65
2023/09/14 04:30:58;;;;;;;9.05;1.38;;;;;;;17.47;90.80;101693.16;7356547;19;20039;-61
2023/09/14 04:33:25;;;;;;;4.60;1.27;;;;;;;17.49;91.01;101693.00;7353865;19;20373;-63
2023/09/14 04:35:57;;;;;;;7.18;1.15;;;;;;;17.51;91.49;101688.34;7352994;19;20442;-63
2023/09/14 04:38:24;;;;;;;3.63;1.23;;;;;;;17.48;91.18;101694.00;7354046;19;20062;-62
2023/09/14 04:40:52;;;;;;;10.88;1.42;;;;;;;17.48;91.21;101694.81;7356351;19;20499;-61
2023/09/14 04:43:22;;;;;;;6.90;1.27;;;;;;;17.43;90.64;101678.56;7354285;19;20011;-61
2023/09/14 04:45:49;;;;;;;5.88;1.20;;;;;;;17.38;91.23;101675.59;7354141;19;20639;-62
2023/09/14 04:48:16;;;;;;;6.43;1.40;;;;;;;17.35;91.55;101678.63;7351640;19;20038;-61
2023/09/14 04:50:44;;;;;;;6.03;1.27;;;;;;;17.36;91.68;101677.63;7351050;19;20642;-61
2023/09/14 04:53:11;;;;;;;8.75;1.40;;;;;;;17.41;93.58;101679.75;7353162;19;20599;-61
2023/09/14 04:55:38;;;;;;;7.03;1.50;;;;;;;17.39;93.23;101687.06;7357635;19;20708;-61
2023/09/14 04:58:06;;;;;;;5.72;1.58;;;;;;;17.35;92.65;101680.44;7353161;19;20007;-62
2023/09/14 05:00:33;;;;;;;4.97;1.20;;;;;;;17.36;92.33;101677.63;7356315;19;20017;-62
2023/09/14 05:03:04;;;;;;;6.70;1.35;;;;;;;17.35;91.98;101683.13;7354335;19;20019;-61
2023/09/14 05:05:32;;;;;;;6.90;1.02;;;;;;;17.34;92.36;101676.13;7356676;19;20021;-63
2023/09/14 05:08:00;;;;;;;4.88;1.15;;;;;;;17.36;92.32;101682.94;7356417;19;20014;-62
2023/09/14 05:10:27;;;;;;;8.95;1.55;;;;;;;17.35;92.42;101678.63;7356802;19;20010;-63
2023/09/14 05:12:55;;;;;;;9.45;1.73;;;;;;;17.37;92.80;101687.25;7350181;19;20014;-61
2023/09/14 05:15:22;;;;;;;9.43;1.48;;;;;;;17.38;92.52;101693.38;7358452;19;20010;-62
2023/09/14 05:17:50;;;;;;;6.80;1.63;;;;;;;17.40;92.10;101694.06;7354562;19;20356;-62
2023/09/14 05:20:17;;;;;;;6.50;1.08;;;;;;;17.40;92.10;101692.22;7356394;19;20462;-63
2023/09/14 05:22:47;;;;;;;5.45;1.10;;;;;;;17.43;92.25;101701.69;7350783;19;20011;-62
2023/09/14 05:25:14;;;;;;;8.07;1.50;;;;;;;17.41;92.18;101696.56;7356312;19;20021;-62
2023/09/14 05:27:42;;;;;;;5.22;1.70;;;;;;;17.47;92.27;101703.81;7354831;19;20014;-61
2023/09/14 05:30:10;;;;;;;5.88;1.23;;;;;;;17.50;91.58;101707.97;7362881;19;20036;-62
2023/09/14 05:32:42;;;;;;;5.03;1.20;;;;;;;17.53;91.79;101708.44;7361542;19;20130;-61
2023/09/14 05:35:09;;;;;;;8.75;1.40;;;;;;;17.57;91.82;101711.59;7360456;19;20023;-61
2023/09/14 05:37:37;;;;;;;4.78;1.48;;;;;;;17.60;91.62;101705.09;7353033;19;20043;-61
2023/09/14 05:40:09;;;;;;;7.65;1.30;;;;;;;17.62;91.28;101703.09;7360228;19;20010;-62
2023/09/14 05:42:37;;;;;;;;;;;;;;;17.65;90.46;101706.22;7359866;19;20026;-63
2023/09/14 05:45:06;;;;;;;7.15;1.30;;;;;;;17.65;90.00;101708.06;7361456;19;19907;-62
2023/09/14 05:47:34;;;;;;;10.13;1.88;;;;;;;17.64;89.67;101701.06;7361243;19;20014;-62
2023/09/14 05:50:01;;;;;;;8.65;1.40;;;;;;;17.66;89.60;101710.56;7358709;19;20122;-61
2023/09/14 05:52:29;;;;;;;11.30;2.25;;;;;;;17.65;89.62;101718.72;7353748;19;20025;-63
2023/09/14 05:54:56;;;;;;;7.07;1.40;;;;;;;17.67;89.78;101720.19;7358089;19;20010;-62
2023/09/14 05:57:24;;;;;;;8.05;1.80;;;;;;;17.67;89.56;101717.53;7361107;19;20523;-63
2023/09/14 05:59:51;;;;;;;7.93;1.50;;;;;;;17.67;89.72;101730.03;7360944;19;20113;-62
2023/09/14 06:02:19;;;;;;;8.77;1.70;;;;;;;17.67;89.54;101720.19;7359630;19;20319;-62
2023/09/14 06:04:47;;;;;;;6.03;1.50;;;;;;;17.67;89.57;101728.19;7356850;19;20094;-62
2023/09/14 06:07:14;;;;;;;8.27;2.08;;;;;;;17.66;89.48;101731.84;7358475;19;20213;-62
2023/09/14 06:09:42;;;;;;;8.13;2.10;;;;;;;17.68;89.73;101727.16;7360148;19;20050;-64
2023/09/14 06:12:09;;;;;;;9.23;1.70;;;;;;;17.71;89.83;101731.31;7360824;19;20010;-61
2023/09/14 06:14:37;;;;;;;4.80;1.60;;;;;;;17.73;89.89;101729.28;7362242;19;20096;-61
2023/09/14 06:17:04;;;;;;;6.13;2.15;;;;;;;17.71;89.43;101737.47;7359765;19;20089;-61
2023/09/14 06:19:32;;;;;;;6.57;1.73;;;;;;;17.74;89.57;101729.13;7361250;19;20018;-62
2023/09/14 06:21:59;;;;;;;4.75;1.67;;;;;;;17.72;89.46;101733.81;7357701;19;20132;-61
2023/09/14 06:24:26;;;;;;;5.82;1.50;;;;;;;17.72;89.90;101733.81;7360101;19;20180;-62
2023/09/14 06:26:55;;;;;;;9.23;1.67;;;;;;;17.73;89.83;101723.97;7360188;19;20479;-62
2023/09/14 06:29:22;;;;;;;8.48;1.60;;;;;;;17.71;89.74;101721.50;7351458;19;20014;-61
2023/09/14 06:31:50;;;;;;;6.75;1.88;;;;;;;17.66;90.24;101721.19;7359513;19;20097;-62
2023/09/14 06:34:18;;;;;;;5.50;1.30;;;;;;;17.68;90.54;101723.66;7361592;19;20018;-61
2023/09/14 06:36:45;;;;;;;7.53;1.85;;;;;;;17.67;90.66;101720.19;7354546;19;20094;-62
2023/09/14 06:39:13;;;;;;;5.95;2.30;;;;;;;17.72;92.38;101717.00;7360608;19;20655;-63
2023/09/14 06:41:41;;;;;;;7.25;1.83;;;;;;;17.72;91.54;101728.47;7358676;19;20018;-63
2023/09/14 06:44:08;;;;;;;6.25;1.77;;;;;;;17.73;91.09;101726.63;7360106;19;20094;-62
2023/09/14 06:46:35;;;;;;;5.03;1.58;;;;;;;17.72;91.08;101723.16;7359687;19;20022;-61
2023/09/14 06:49:03;;;;;;;5.65;1.77;;;;;;;17.73;90.77;101731.94;7358313;19;20107;-61
2023/09/14 06:51:30;;;;;;;7.30;1.90;;;;;;;17.74;90.65;101722.97;7353776;19;20015;-62
2023/09/14 06:54:00;;;;;;;6.30;1.70;;;;;;;17.74;91.19;101730.94;7356093;19;20861;-62
2023/09/14 06:56:28;;;;;;;6.40;1.70;;;;;;;17.73;91.01;101718.63;7353025;19;20110;-63
2023/09/14 06:58:55;;;;;;;10.07;1.85;;;;;;;17.75;90.99;101719.31;7360223;19;20503;-63
2023/09/14 07:01:23;;;;;;;7.05;1.90;;;;;;;17.75;90.74;101716.63;7358234;19;20010;-62
2023/09/14 07:03:51;;;;;;;7.45;1.70;;;;;;;17.75;90.40;101717.47;7360732;19;20021;-62
2023/09/14 07:06:19;;;;;;;10.50;2.03;;;;;;;17.77;90.10;101717.31;7356945;19;20693;-62
2023/09/14 07:08:48;;;;;;;8.73;2.53;;;;;;;17.79;90.21;101723.25;7357151;19;20003;-62
2023/09/14 07:11:16;;;;;;;8.55;2.28;;;;;;;17.80;90.38;101717.75;7354347;19;20270;-62
2023/09/14 07:13:43;;;;;;;7.55;1.90;;;;;;;17.85;90.46;101722.56;7361630;19;20033;-63
2023/09/14 07:16:11;;;;;;;6.65;1.70;;;;;;;17.84;90.11;101719.06;7355894;19;20026;-63
2023/09/14 07:18:39;;;;;;;10.20;3.28;;;;;;;17.87;90.05;101723.22;7358166;19;20462;-63
2023/09/14 07:21:06;;;;;;;7.03;2.13;;;;;;;17.88;89.47;101719.53;7350505;19;20010;-61
2023/09/14 07:23:34;;;;;;;7.05;2.10;;;;;;;17.88;89.33;101714.19;7359254;19;20720;-62
2023/09/14 07:26:04;;;;;;;5.90;1.88;;;;;;;17.90;89.52;101720.19;7355722;19;20087;-62
2023/09/14 07:28:31;;;;;;;7.30;2.13;;;;;;;17.91;88.54;101714.69;7355157;19;20022;-63
2023/09/14 07:31:05;;;;;;;7.90;2.10;;;;;;;17.94;88.66;101726.81;7356648;19;20069;-62
2023/09/14 07:33:33;;;;;;;7.18;1.95;;;;;;;17.98;88.29;101727.28;7356690;19;20011;-63
2023/09/14 07:36:01;;;;;;;11.38;2.00;;;;;;;18.02;88.35;101729.41;7357423;19;20642;-63
2023/09/14 07:38:29;;;;;;;6.45;1.73;;;;;;;18.03;87.32;101722.25;7349069;19;20489;-63
2023/09/14 07:40:57;;;;;;;6.63;2.20;;;;;;;18.06;87.79;101727.22;7352336;19;20499;-62
2023/09/14 07:43:25;;;;;;;7.15;1.58;;;;;;;18.12;88.65;101731.81;7357013;19;20471;-63
2023/09/14 07:45:55;;;;;;;7.95;1.88;;;;;;;18.17;87.53;101721.47;7357998;19;20038;-61
2023/09/14 07:48:23;;;;;;;6.70;2.20;;;;;;;18.23;86.89;101734.06;7357702;19;20356;-62
2023/09/14 07:50:52;;;;;;;7.90;2.17;;;;;;;18.27;85.63;101730.03;7357986;19;20015;-62
2023/09/14 07:53:20;;;;;;;5.25;1.50;;;;;;;18.32;85.18;101731.16;7352136;19;20017;-61
2023/09/14 07:55:52;;;;;;;9.55;1.80;;;;;;;18.37;84.91;101733.25;7354834;19;20100;-61
2023/09/14 07:58:24;;;;;;;4.65;1.33;;;;;;;18.40;84.65;101735.56;7360082;19;20082;-62
2023/09/14 08:00:53;;;;;;;4.13;1.27;;;;;;;18.47;84.53;101739.16;7355736;19;20019;-63
2023/09/14 08:03:20;;;;;;;6.40;1.23;;;;;;;18.49;83.37;101744.31;7352337;19;21697;-60
2023/09/14 08:05:50;;;;;;;16.73;8.93;;;;;;;18.59;84.12;101743.03;7353250;19;20014;-62
2023/09/14 08:08:19;;;;;;;33.88;22.10;;;;;;;18.72;83.40;101747.75;7356236;19;20526;-62
2023/09/14 08:10:51;;;;;;;25.05;16.02;;;;;;;18.80;81.97;101747.66;7356278;19;20035;-62
2023/09/14 08:13:20;;;;;;;13.32;6.72;;;;;;;18.89;81.10;101741.25;7357717;19;20029;-61
2023/09/14 08:15:48;;;;;;;5.53;1.50;;;;;;;18.98;81.68;101737.47;7358598;19;20030;-62
2023/09/14 08:18:18;;;;;;;3.08;0.98;;;;;;;18.99;80.72;101744.47;7356939;19;20022;-61
2023/09/14 08:20:46;;;;;;;3.53;0.80;;;;;;;19.04;80.08;101739.41;7355193;19;20165;-62
2023/09/14 08:23:16;;;;;;;3.47;0.90;;;;;;;19.08;79.71;101738.00;7355033;19;20014;-62
2023/09/14 08:25:46;;;;;;;8.33;0.90;;;;;;;19.12;80.11;101736.59;7355726;19;20093;-62
2023/09/14 08:28:16;;;;;;;5.13;0.80;;;;;;;19.14;79.26;101733.75;7351524;19;20601;-61
2023/09/14 08:30:45;;;;;;;4.22;0.60;;;;;;;19.18;78.95;101733.19;7352265;19;20483;-61
2023/09/14 08:33:13;;;;;;;2.85;0.70;;;;;;;19.21;78.89;101735.47;7356651;19;20010;-62
2023/09/14 08:35:45;;;;;;;7.85;0.70;;;;;;;19.22;78.55;101729.13;7353004;19;20010;-62
2023/09/14 08:38:13;;;;;;;8.00;0.60;;;;;;;19.25;78.83;101740.47;7356295;19;20022;-62
2023/09/14 08:40:41;;;;;;;2.38;0.47;;;;;;;19.27;77.87;101733.09;7359505;19;20026;-62
2023/09/14 08:43:12;;;;;;;3.45;0.60;;;;;;;19.28;76.74;101735.56;7355775;19;20010;-61
2023/09/14 08:45:39;;;;;;;4.15;0.40;;;;;;;19.31;75.66;101737.03;7359947;19;20002;-62
2023/09/14 08:48:08;;;;;;;3.67;0.40;;;;;;;19.32;74.90;101738.69;7355673;19;20006;-63
2023/09/14 08:50:39;;;;;;;1.88;0.25;;;;;;;19.35;75.56;101743.66;7357602;19;20015;-63
2023/09/14 08:53:12;;;;;;;3.42;0.52;;;;;;;19.40;75.25;101738.59;7351279;19;20022;-61
2023/09/14 08:55:39;;;;;;;1.85;0.30;;;;;;;19.45;75.67;101738.88;7353172;19;20648;-61
2023/09/14 08:58:08;;;;;;;3.80;0.55;;;;;;;19.48;75.50;101733.16;7353878;19;20491;-62
2023/09/14 09:00:37;;;;;;;2.53;0.30;;;;;;;19.50;74.58;101737.31;7358245;19;20628;-63
2023/09/14 09:03:05;;;;;;;3.38;0.32;;;;;;;19.52;75.76;101740.59;7363840;19;20022;-62
2023/09/14 09:05:33;;;;;;;1.45;0.40;;;;;;;19.56;75.29;101741.03;7362697;19;20561;-62
2023/09/14 09:08:01;;;;;;;0.77;0.30;;;;;;;19.58;74.45;101745.19;7362747;19;20022;-62
2023/09/14 09:10:31;;;;;;;2.88;0.30;;;;;;;19.59;74.41;101746.03;7364536;19;20018;-63
2023/09/14 09:13:03;;;;;;;1.48;0.30;;;;;;;19.60;74.36;101751.19;7363258;19;20022;-61
2023/09/14 09:15:34;;;;;;;3.00;0.40;;;;;;;19.62;74.20;101745.63;7361686;19;20530;-62
2023/09/14 09:18:05;;;;;;;4.47;0.40;;;;;;;19.65;74.41;101742.59;7364196;19;20048;-61
2023/09/14 09:20:33;;;;;;;2.60;0.82;;;;;;;19.68;74.73;101746.72;7354568;19;20025;-62
2023/09/14 09:23:01;;;;;;;1.77;0.50;;;;;;;19.74;74.70;101741.44;7361018;19;20014;-61
2023/09/14 09:25:29;;;;;;;3.83;0.40;;;;;;;19.78;74.91;101737.38;7361844;19;20018;-61
2023/09/14 09:27:59;;;;;;;2.97;0.30;;;;;;;19.85;75.19;101742.78;7361346;19;20382;-60
2023/09/14 09:30:30;;;;;;;3.13;0.43;;;;;;;19.91;74.89;101734.81;7359370;19;20019;-60
2023/09/14 09:33:02;;;;;;;3.72;0.50;;;;;;;19.91;73.60;101744.72;7360712;19;20010;-61
2023/09/14 09:35:31;;;;;;;1.85;0.40;;;;;;;19.94;73.64;101739.81;7356870;19;20014;-61
2023/09/14 09:37:59;;;;;;;6.40;0.50;;;;;;;19.95;73.16;101732.63;7357015;19;20014;-61
2023/09/14 09:40:32;;;;;;;3.80;0.50;;;;;;;20.00;73.04;101733.69;7361742;19;20010;-61
2023/09/14 09:43:04;;;;;;;4.55;2.40;;;;;;;20.03;72.63;101727.13;7361242;19;20026;-61
2023/09/14 09:45:32;;;;;;;8.07;4.65;;;;;;;20.07;73.85;101723.03;7353694;19;20086;-62
2023/09/14 09:48:01;;;;;;;4.53;1.90;;;;;;;20.18;73.82;101724.38;7360266;19;20649;-61
2023/09/14 09:50:29;;;;;;;5.40;0.30;;;;;;;20.24;72.17;101715.56;7359793;19;20018;-62
2023/09/14 09:52:57;;;;;;;2.17;0.55;;;;;;;20.27;71.83;101724.03;7359518;19;20022;-61
2023/09/14 09:55:27;;;;;;;1.90;0.40;;;;;;;20.34;72.22;101719.59;7359292;19;20219;-61
2023/09/14 09:57:59;;;;;;;2.83;0.50;;;;;;;20.37;72.12;101711.16;7357324;19;20572;-62
2023/09/14 10:00:34;;;;;;;1.73;0.50;;;;;;;20.42;72.27;101714.09;7361783;19;20011;-61
2023/09/14 10:03:03;;;;;;;2.38;0.40;;;;;;;20.46;71.36;101715.38;7349180;19;20018;-62
2023/09/14 10:05:36;;;;;;;1.63;0.30;;;;;;;20.52;69.89;101718.28;7355628;19;20022;-62
2023/09/14 10:08:18;;;;;;;4.07;0.40;;;;;;;20.54;70.31;101724.25;7357087;19;20417;-62
2023/09/14 10:10:51;;;;;;;2.00;0.40;;;;;;;20.53;70.61;101704.69;7359559;19;20663;-62
2023/09/14 10:13:22;;;;;;;1.70;0.30;;;;;;;20.55;69.41;101710.69;7357522;19;20015;-63
2023/09/14 10:15:51;;;;;;;2.80;0.30;;;;;;;20.60;70.97;101716.28;7359719;19;20019;-63
2023/09/14 10:18:21;;;;;;;1.08;0.32;;;;;;;20.67;71.46;101719.78;7359732;19;20007;-62
2023/09/14 10:20:51;;;;;;;3.05;0.40;;;;;;;20.74;70.27;101714.50;7355378;19;20017;-63
2023/09/14 10:23:20;;;;;;;1.30;0.40;;;;;;;20.77;69.31;101708.75;7360625;19;20018;-70
2023/09/14 10:25:50;;;;;;;1.13;0.40;;;;;;;20.83;70.30;101711.44;7358385;19;21634;-60
2023/09/14 10:28:20;;;;;;;2.75;0.30;;;;;;;20.86;69.24;101711.06;7359801;19;20007;-62
2023/09/14 10:30:50;;;;;;;2.35;0.47;;;;;;;20.87;68.79;101707.38;7356151;19;20018;-63
2023/09/14 10:33:20;;;;;;;1.48;0.30;;;;;;;20.91;70.20;101699.75;7355170;19;20038;-65
2023/09/14 10:35:48;;;;;;;1.27;0.30;;;;;;;20.95;69.71;101694.84;7343924;19;20018;-62
2023/09/14 10:38:17;;;;;;;2.83;0.50;;;;;;;20.98;69.34;101700.59;7357154;19;20014;-61
2023/09/14 10:40:46;;;;;;;4.43;0.50;;;;;;;20.99;67.53;101696.06;7357359;19;20018;-63
2023/09/14 10:43:13;;;;;;;3.45;0.60;;;;;;;20.99;66.92;101699.59;7359660;19;20018;-61
2023/09/14 10:45:44;;;;;;;2.15;0.40;;;;;;;20.96;67.11;101694.66;7357366;19;20074;-61
2023/09/14 10:48:17;;;;;;;0.80;0.40;;;;;;;20.97;66.21;101687.44;7357981;19;20903;-64
2023/09/14 10:50:45;;;;;;;3.45;0.50;;;;;;;20.98;65.70;101679.19;7358014;19;20877;-61
2023/09/14 10:53:14;;;;;;;2.83;0.35;;;;;;;20.98;65.66;101681.88;7360568;19;20010;-61
2023/09/14 10:55:42;;;;;;;3.03;0.60;;;;;;;21.02;66.57;101667.09;7358872;19;20082;-61
2023/09/14 10:58:12;;;;;;;2.75;0.60;;;;;;;21.08;67.42;101660.91;7352966;19;20028;-62
2023/09/14 11:00:42;;;;;;;3.30;0.50;;;;;;;21.14;65.47;101670.00;7356730;19;20035;-62
2023/09/14 11:03:22;;;;;;;4.70;0.50;;;;;;;21.21;65.04;101668.19;7355930;19;20026;-61
2023/09/14 11:05:53;;;;;;;1.75;0.50;;;;;;;21.27;64.13;101659.38;7356083;19;20022;-62
2023/09/14 11:08:27;;;;;;;2.30;0.60;;;;;;;21.30;64.35;101661.63;7354553;19;20408;-62
2023/09/14 11:10:59;;;;;;;3.78;0.50;;;;;;;21.36;63.49;101666.16;7352895;19;20018;-62
2023/09/14 11:13:33;;;;;;;2.63;0.40;;;;;;;21.44;63.59;101665.13;7358807;19;20018;-62
2023/09/14 11:16:10;;;;;;;1.33;0.30;;;;;;;21.49;63.33;101662.69;7355444;19;20368;-61
2023/09/14 11:18:45;;;;;;;1.50;0.38;;;;;;;21.53;62.60;101662.09;7360112;19;20018;-62
2023/09/14 11:21:36;;;;;;;2.80;0.40;;;;;;;21.54;61.54;101669.06;7351137;19;20042;-62
2023/09/14 11:24:07;;;;;;;2.50;0.40;;;;;;;21.53;60.36;101656.72;7357137;19;20608;-61
2023/09/14 11:26:42;;;;;;;2.22;0.40;;;;;;;21.56;59.90;101655.47;7357981;19;20565;-62
2023/09/14 11:29:11;;;;;;;4.55;0.38;;;;;;;21.62;60.12;101657.34;7356049;19;20025;-62
2023/09/14 11:31:40;;;;;;;4.00;0.40;;;;;;;21.64;59.45;101655.28;7356404;19;20444;-62